createdAt,value
2023-01-29T00:00:42.848Z,77.27
2023-01-29T00:05:36.860Z,77.25
2023-01-29T00:10:29.663Z,77.08
2023-01-29T00:15:22.613Z,77.08
2023-01-29T00:20:16.872Z,77.39
2023-01-29T00:25:11.847Z,77.22
2023-01-29T00:30:14.933Z,77.56
2023-01-29T00:35:09.742Z,77.15
2023-01-29T00:40:04.137Z,77.21
2023-01-29T00:45:00.088Z,77.44
2023-01-29T00:49:55.911Z,77.13
2023-01-29T00:54:48.731Z,77.15
2023-01-29T00:59:41.483Z,77.46
2023-01-29T01:04:35.118Z,77.24
2023-01-29T01:09:44.959Z,77.47
2023-01-29T01:14:37.958Z,77.19
2023-01-29T01:19:30.797Z,77.12
2023-01-29T01:24:23.662Z,77.35
2023-01-29T01:29:16.582Z,77.22
2023-01-29T01:34:10.429Z,76.73
2023-01-29T01:39:03.213Z,77.07
2023-01-29T01:44:02.139Z,76.77
2023-01-29T01:49:02.925Z,77.11
2023-01-29T01:54:08.015Z,76.81
2023-01-29T01:59:01.084Z,76.66
2023-01-29T02:04:17.076Z,76.80
2023-01-29T02:09:33.572Z,76.73
2023-01-29T02:14:26.531Z,76.72
2023-01-29T02:19:41.759Z,76.80
2023-01-29T02:25:10.089Z,76.82
2023-01-29T02:30:18.477Z,76.94
2023-01-29T02:35:30.653Z,76.98
2023-01-29T02:40:32.521Z,76.65
2023-01-29T02:45:53.691Z,76.48
2023-01-29T02:50:58.102Z,76.61
2023-01-29T02:56:08.060Z,76.65
2023-01-29T03:01:09.122Z,76.46
2023-01-29T03:06:08.839Z,76.65
2023-01-29T03:11:05.983Z,76.47
2023-01-29T03:16:19.246Z,76.49
2023-01-29T03:21:36.868Z,76.50
2023-01-29T03:26:47.855Z,76.59
2023-01-29T03:32:00.477Z,76.62
2023-01-29T03:36:59.165Z,76.54
2023-01-29T03:42:10.542Z,76.72
2023-01-29T03:47:24.199Z,76.38
2023-01-29T03:52:22.984Z,76.54
2023-01-29T03:57:32.599Z,76.56
2023-01-29T04:02:37.072Z,76.43
2023-01-29T04:07:36.780Z,76.58
2023-01-29T04:12:52.487Z,76.49
2023-01-29T04:17:52.782Z,76.41
2023-01-29T04:23:27.373Z,76.74
2023-01-29T04:28:29.515Z,76.68
2023-01-29T04:33:48.839Z,76.82
2023-01-29T04:39:12.069Z,76.67
2023-01-29T04:44:28.637Z,76.46
2023-01-29T04:49:43.291Z,76.62
2023-01-29T04:54:51.128Z,76.64
2023-01-29T04:59:49.479Z,76.48
2023-01-29T05:04:45.657Z,76.54
2023-01-29T05:09:40.521Z,76.64
2023-01-29T05:14:36.260Z,76.69
2023-01-29T05:19:29.107Z,76.60
2023-01-29T05:24:26.801Z,76.74
2023-01-29T05:29:19.633Z,76.68
2023-01-29T05:34:12.451Z,76.55
2023-01-29T05:39:05.750Z,76.72
2023-01-29T05:43:58.562Z,76.83
2023-01-29T05:48:55.831Z,76.39
2023-01-29T05:53:48.741Z,76.70
2023-01-29T05:58:41.775Z,76.51
2023-01-29T06:03:34.556Z,76.59
2023-01-29T06:08:27.350Z,76.50
2023-01-29T06:13:23.732Z,76.70
2023-01-29T06:18:16.645Z,76.70
2023-01-29T06:23:09.475Z,76.51
2023-01-29T06:28:03.525Z,76.61
2023-01-29T06:33:03.100Z,76.30
2023-01-29T06:37:55.865Z,76.32
2023-01-29T06:42:51.500Z,76.32
2023-01-29T06:47:44.329Z,76.18
2023-01-29T06:52:37.114Z,75.97
2023-01-29T06:57:31.073Z,75.91
2023-01-29T07:02:23.919Z,76.05
2023-01-29T07:07:16.789Z,75.95
2023-01-29T07:12:11.117Z,75.94
2023-01-29T07:17:05.025Z,75.93
2023-01-29T07:21:58.165Z,75.69
2023-01-29T07:26:50.945Z,75.77
2023-01-29T07:31:43.808Z,75.91
2023-01-29T07:36:37.384Z,76.03
2023-01-29T07:41:30.187Z,75.59
2023-01-29T07:46:25.662Z,75.64
2023-01-29T07:51:18.697Z,75.53
2023-01-29T07:56:11.601Z,75.47
2023-01-29T08:01:08.690Z,75.67
2023-01-29T08:06:01.529Z,75.35
2023-01-29T08:10:54.342Z,75.31
2023-01-29T08:15:47.305Z,74.88
2023-01-29T08:20:40.230Z,74.59
2023-01-29T08:25:33.638Z,74.34
2023-01-29T08:30:28.924Z,74.12
2023-01-29T08:35:22.002Z,74.44
2023-01-29T08:40:15.557Z,74.29
2023-01-29T08:45:09.388Z,73.92
2023-01-29T08:50:02.447Z,74.37
2023-01-29T08:54:55.317Z,74.41
2023-01-29T08:59:48.086Z,74.14
2023-01-29T09:04:40.893Z,73.58
2023-01-29T09:09:33.664Z,73.93
2023-01-29T09:14:27.828Z,73.98
2023-01-29T09:19:21.601Z,74.39
2023-01-29T09:24:14.474Z,73.98
2023-01-29T09:29:08.246Z,73.72
2023-01-29T09:34:01.664Z,73.41
2023-01-29T09:38:54.601Z,73.64
2023-01-29T09:43:53.165Z,73.64
2023-01-29T09:48:47.556Z,73.07
2023-01-29T09:53:59.828Z,73.01
2023-01-29T09:58:53.181Z,73.29
2023-01-29T10:04:04.816Z,72.92
2023-01-29T10:09:13.139Z,72.76
2023-01-29T10:14:19.989Z,72.78
2023-01-29T10:19:19.395Z,72.35
2023-01-29T10:24:24.560Z,72.28
2023-01-29T10:29:22.204Z,72.35
2023-01-29T10:34:15.003Z,71.91
2023-01-29T10:39:19.876Z,72.47
2023-01-29T10:44:31.589Z,72.67
2023-01-29T10:49:27.267Z,72.55
2023-01-29T10:55:01.770Z,72.88
2023-01-29T11:00:13.241Z,72.84
2023-01-29T11:05:22.209Z,72.91
2023-01-29T11:10:23.559Z,73.36
2023-01-29T11:15:34.975Z,73.65
2023-01-29T11:20:29.735Z,73.76
2023-01-29T11:25:23.420Z,74.29
2023-01-29T11:30:29.088Z,74.65
2023-01-29T11:35:25.032Z,75.07
2023-01-29T11:40:22.451Z,75.56
2023-01-29T11:45:21.380Z,75.67
2023-01-29T11:50:23.268Z,75.65
2023-01-29T11:55:23.429Z,75.50
2023-01-29T12:00:24.262Z,75.60
2023-01-29T12:05:21.287Z,75.56
2023-01-29T12:10:34.258Z,75.77
2023-01-29T12:15:27.326Z,75.93
2023-01-29T12:20:28.257Z,75.53
2023-01-29T12:25:37.871Z,76.03
2023-01-29T12:30:55.582Z,76.07
2023-01-29T12:35:57.728Z,76.28
2023-01-29T12:41:10.150Z,76.66
2023-01-29T12:46:03.904Z,76.33
2023-01-29T12:51:05.095Z,76.66
2023-01-29T12:56:06.953Z,76.44
2023-01-29T13:01:10.069Z,76.69
2023-01-29T13:06:11.356Z,76.77
2023-01-29T13:11:09.856Z,77.14
2023-01-29T13:16:08.206Z,77.12
2023-01-29T13:21:02.315Z,77.45
2023-01-29T13:25:55.740Z,77.37
2023-01-29T13:30:49.264Z,77.39
2023-01-29T13:35:44.850Z,77.58
2023-01-29T13:40:38.600Z,77.47
2023-01-29T13:45:37.406Z,77.87
2023-01-29T13:50:38.667Z,78.19
2023-01-29T13:55:40.057Z,78.24
2023-01-29T14:00:35.675Z,78.03
2023-01-29T14:05:31.738Z,78.00
2023-01-29T14:10:25.704Z,78.61
2023-01-29T14:15:30.901Z,78.49
2023-01-29T14:20:50.116Z,79.01
2023-01-29T14:25:43.110Z,79.30
2023-01-29T14:30:36.727Z,79.44
2023-01-29T14:35:33.868Z,79.77
2023-01-29T14:40:29.836Z,79.88
2023-01-29T14:45:28.452Z,80.22
2023-01-29T14:50:32.016Z,80.48
2023-01-29T14:55:28.657Z,80.48
2023-01-29T15:00:43.775Z,80.75
2023-01-29T15:05:38.771Z,81.02
2023-01-29T15:10:43.950Z,81.09
2023-01-29T15:15:44.996Z,81.03
2023-01-29T15:20:40.956Z,81.34
2023-01-29T15:25:47.637Z,81.68
2023-01-29T15:30:43.328Z,81.86
2023-01-29T15:35:41.980Z,82.88
2023-01-29T15:40:36.371Z,83.54
2023-01-29T15:45:34.588Z,83.15
2023-01-29T15:50:27.494Z,83.04
2023-01-29T15:55:24.503Z,83.02
2023-01-29T16:00:29.763Z,82.79
2023-01-29T16:05:33.769Z,82.95
2023-01-29T16:10:32.442Z,83.09
2023-01-29T16:15:35.007Z,83.19
2023-01-29T16:20:36.560Z,83.38
2023-01-29T16:25:31.597Z,83.45
2023-01-29T16:30:28.052Z,83.53
2023-01-29T16:35:21.141Z,83.54
2023-01-29T16:40:26.046Z,83.80
2023-01-29T16:45:30.366Z,83.68
2023-01-29T16:50:46.279Z,83.74
2023-01-29T16:55:49.875Z,83.88
2023-01-29T17:01:10.812Z,84.08
2023-01-29T17:06:14.100Z,83.81
2023-01-29T17:11:07.662Z,84.17
2023-01-29T17:16:03.901Z,84.54
2023-01-29T17:20:56.930Z,84.66
2023-01-29T17:25:50.273Z,84.69
2023-01-29T17:30:46.440Z,84.86
2023-01-29T17:35:45.825Z,84.85
2023-01-29T17:40:51.073Z,85.31
2023-01-29T17:45:44.206Z,85.24
2023-01-29T17:50:41.162Z,85.48
2023-01-29T17:55:33.965Z,85.38
2023-01-29T18:00:26.807Z,85.71
2023-01-29T18:05:20.377Z,85.74
2023-01-29T18:10:22.130Z,85.75
2023-01-29T18:15:16.051Z,85.75
2023-01-29T18:20:18.910Z,85.55
2023-01-29T18:25:12.003Z,85.44
2023-01-29T18:30:06.115Z,85.80
2023-01-29T18:34:59.050Z,85.79
2023-01-29T18:39:52.572Z,85.75
2023-01-29T18:44:45.514Z,85.67
2023-01-29T18:49:39.385Z,85.88
2023-01-29T18:54:32.218Z,85.82
2023-01-29T18:59:25.026Z,85.82
2023-01-29T19:04:18.453Z,86.05
2023-01-29T19:09:11.589Z,85.98
2023-01-29T19:14:05.222Z,86.05
2023-01-29T19:18:59.158Z,86.04
2023-01-29T19:23:52.119Z,86.45
2023-01-29T19:28:45.040Z,86.34
2023-01-29T19:33:39.116Z,86.49
2023-01-29T19:38:38.061Z,86.35
2023-01-29T19:43:31.905Z,86.21
2023-01-29T19:48:26.550Z,86.36
2023-01-29T19:53:19.479Z,86.16
2023-01-29T19:58:12.553Z,86.41
2023-01-29T20:03:05.363Z,86.30
2023-01-29T20:07:58.169Z,86.50
2023-01-29T20:12:50.984Z,86.47
2023-01-29T20:17:45.561Z,86.48
2023-01-29T20:22:38.359Z,86.61
2023-01-29T20:27:31.161Z,86.58
2023-01-29T20:32:24.233Z,86.49
2023-01-29T20:37:16.981Z,86.54
2023-01-29T20:42:09.821Z,86.49
2023-01-29T20:47:02.783Z,86.69
2023-01-29T20:51:55.745Z,86.48
2023-01-29T20:56:48.747Z,86.37
2023-01-29T21:01:42.723Z,86.52
2023-01-29T21:06:35.623Z,86.62
2023-01-29T21:11:28.694Z,86.46
2023-01-29T21:16:21.857Z,86.54
2023-01-29T21:21:14.696Z,86.50
2023-01-29T21:26:08.765Z,86.53
2023-01-29T21:31:11.346Z,86.41
2023-01-29T21:36:05.467Z,86.46
2023-01-29T21:41:07.284Z,86.48
2023-01-29T21:46:03.998Z,86.86
2023-01-29T21:50:57.507Z,86.81
2023-01-29T21:55:50.360Z,86.80
2023-01-29T22:00:43.221Z,86.77
2023-01-29T22:05:36.197Z,87.10
2023-01-29T22:10:29.161Z,87.08
2023-01-29T22:15:23.924Z,87.13
2023-01-29T22:20:17.740Z,87.15
2023-01-29T22:25:11.148Z,87.36
2023-01-29T22:30:05.501Z,87.49
2023-01-29T22:34:58.574Z,87.42
2023-01-29T22:39:52.918Z,87.41
2023-01-29T22:44:46.293Z,87.49
2023-01-29T22:49:42.234Z,87.61
2023-01-29T22:54:35.037Z,87.67
2023-01-29T22:59:30.132Z,87.71
2023-01-29T23:04:23.122Z,87.67
2023-01-29T23:09:16.043Z,88.02
2023-01-29T23:14:08.952Z,88.05
2023-01-29T23:19:01.862Z,87.92
2023-01-29T23:23:55.566Z,87.94
2023-01-29T23:28:49.469Z,88.02
2023-01-29T23:33:42.385Z,88.18
2023-01-29T23:38:37.809Z,88.36
2023-01-29T23:43:31.508Z,87.86
2023-01-29T23:48:24.809Z,88.13
2023-01-29T23:53:20.106Z,88.16
2023-01-29T23:58:12.918Z,88.10
